sensor_id;sensor_type;location;lat;lon;timestamp;P1;durP1;ratioP1;P2;durP2;ratioP2
40204;SDS011;26963;42.666;23.366;2024-01-30T00:01:26;12.13;;;6.87;;
40204;SDS011;26963;42.666;23.366;2024-01-30T00:03:52;10.90;;;7.23;;
40204;SDS011;26963;42.666;23.366;2024-01-30T00:06:21;13.67;;;6.63;;
40204;SDS011;26963;42.666;23.366;2024-01-30T00:08:47;11.30;;;7.07;;
40204;SDS011;26963;42.666;23.366;2024-01-30T00:11:14;11.90;;;7.20;;
40204;SDS011;26963;42.666;23.366;2024-01-30T00:13:40;10.37;;;7.00;;
40204;SDS011;26963;42.666;23.366;2024-01-30T00:16:06;10.90;;;6.53;;
40204;SDS011;26963;42.666;23.366;2024-01-30T00:18:32;13.17;;;7.33;;
40204;SDS011;26963;42.666;23.366;2024-01-30T00:20:57;10.97;;;6.80;;
40204;SDS011;26963;42.666;23.366;2024-01-30T00:23:23;10.80;;;6.67;;
40204;SDS011;26963;42.666;23.366;2024-01-30T00:25:49;11.70;;;6.60;;
40204;SDS011;26963;42.666;23.366;2024-01-30T00:28:15;10.47;;;6.37;;
40204;SDS011;26963;42.666;23.366;2024-01-30T00:30:41;11.60;;;6.80;;
40204;SDS011;26963;42.666;23.366;2024-01-30T00:33:06;10.23;;;6.83;;
40204;SDS011;26963;42.666;23.366;2024-01-30T00:35:33;11.87;;;6.70;;
40204;SDS011;26963;42.666;23.366;2024-01-30T00:37:58;11.60;;;6.97;;
40204;SDS011;26963;42.666;23.366;2024-01-30T00:40:24;10.07;;;7.07;;
40204;SDS011;26963;42.666;23.366;2024-01-30T00:42:50;11.63;;;6.57;;
40204;SDS011;26963;42.666;23.366;2024-01-30T00:45:16;11.60;;;7.27;;
40204;SDS011;26963;42.666;23.366;2024-01-30T00:47:42;10.37;;;6.30;;
40204;SDS011;26963;42.666;23.366;2024-01-30T00:50:09;9.87;;;6.80;;
40204;SDS011;26963;42.666;23.366;2024-01-30T00:52:35;9.90;;;6.20;;
40204;SDS011;26963;42.666;23.366;2024-01-30T00:55:01;10.70;;;6.83;;
40204;SDS011;26963;42.666;23.366;2024-01-30T00:57:27;10.13;;;6.27;;
40204;SDS011;26963;42.666;23.366;2024-01-30T00:59:53;11.67;;;7.10;;
40204;SDS011;26963;42.666;23.366;2024-01-30T01:02:19;10.50;;;6.70;;
40204;SDS011;26963;42.666;23.366;2024-01-30T01:04:44;11.37;;;6.90;;
40204;SDS011;26963;42.666;23.366;2024-01-30T01:07:10;9.43;;;6.80;;
40204;SDS011;26963;42.666;23.366;2024-01-30T01:09:36;9.43;;;6.20;;
40204;SDS011;26963;42.666;23.366;2024-01-30T01:12:02;13.33;;;6.43;;
40204;SDS011;26963;42.666;23.366;2024-01-30T01:14:29;9.80;;;6.00;;
40204;SDS011;26963;42.666;23.366;2024-01-30T01:16:54;10.43;;;6.73;;
40204;SDS011;26963;42.666;23.366;2024-01-30T01:19:20;12.17;;;6.63;;
40204;SDS011;26963;42.666;23.366;2024-01-30T01:21:46;11.07;;;7.27;;
40204;SDS011;26963;42.666;23.366;2024-01-30T01:24:12;9.93;;;6.77;;
40204;SDS011;26963;42.666;23.366;2024-01-30T01:26:37;11.83;;;7.17;;
40204;SDS011;26963;42.666;23.366;2024-01-30T01:29:03;10.90;;;7.50;;
40204;SDS011;26963;42.666;23.366;2024-01-30T01:31:35;10.93;;;7.30;;
40204;SDS011;26963;42.666;23.366;2024-01-30T01:34:05;12.80;;;8.33;;
40204;SDS011;26963;42.666;23.366;2024-01-30T01:36:31;11.20;;;7.10;;
40204;SDS011;26963;42.666;23.366;2024-01-30T01:38:57;11.10;;;7.53;;
40204;SDS011;26963;42.666;23.366;2024-01-30T01:41:22;9.97;;;7.10;;
40204;SDS011;26963;42.666;23.366;2024-01-30T01:43:48;11.17;;;6.97;;
40204;SDS011;26963;42.666;23.366;2024-01-30T01:46:13;9.30;;;6.53;;
40204;SDS011;26963;42.666;23.366;2024-01-30T01:48:39;8.63;;;6.37;;
40204;SDS011;26963;42.666;23.366;2024-01-30T01:51:06;9.90;;;6.77;;
40204;SDS011;26963;42.666;23.366;2024-01-30T01:53:32;10.23;;;6.33;;
40204;SDS011;26963;42.666;23.366;2024-01-30T01:55:57;8.83;;;5.73;;
40204;SDS011;26963;42.666;23.366;2024-01-30T01:58:23;8.93;;;5.73;;
40204;SDS011;26963;42.666;23.366;2024-01-30T02:00:54;8.80;;;5.63;;
40204;SDS011;26963;42.666;23.366;2024-01-30T02:03:21;9.50;;;6.50;;
40204;SDS011;26963;42.666;23.366;2024-01-30T02:05:47;9.23;;;6.03;;
40204;SDS011;26963;42.666;23.366;2024-01-30T02:08:13;8.93;;;5.90;;
40204;SDS011;26963;42.666;23.366;2024-01-30T02:10:38;9.93;;;5.67;;
40204;SDS011;26963;42.666;23.366;2024-01-30T02:13:04;9.13;;;5.60;;
40204;SDS011;26963;42.666;23.366;2024-01-30T02:15:30;7.87;;;5.27;;
40204;SDS011;26963;42.666;23.366;2024-01-30T02:17:56;8.63;;;5.93;;
40204;SDS011;26963;42.666;23.366;2024-01-30T02:20:21;8.63;;;5.87;;
40204;SDS011;26963;42.666;23.366;2024-01-30T02:22:51;9.50;;;5.87;;
40204;SDS011;26963;42.666;23.366;2024-01-30T02:25:18;7.83;;;5.60;;
40204;SDS011;26963;42.666;23.366;2024-01-30T02:27:43;7.97;;;5.67;;
40204;SDS011;26963;42.666;23.366;2024-01-30T02:30:09;9.37;;;5.73;;
40204;SDS011;26963;42.666;23.366;2024-01-30T02:32:35;7.67;;;5.13;;
40204;SDS011;26963;42.666;23.366;2024-01-30T02:35:01;7.83;;;5.27;;
40204;SDS011;26963;42.666;23.366;2024-01-30T02:37:26;8.17;;;5.60;;
40204;SDS011;26963;42.666;23.366;2024-01-30T02:39:52;9.17;;;5.77;;
40204;SDS011;26963;42.666;23.366;2024-01-30T02:42:18;8.30;;;5.47;;
40204;SDS011;26963;42.666;23.366;2024-01-30T02:44:43;8.43;;;6.00;;
40204;SDS011;26963;42.666;23.366;2024-01-30T02:47:09;8.53;;;5.33;;
40204;SDS011;26963;42.666;23.366;2024-01-30T02:49:34;8.40;;;5.40;;
40204;SDS011;26963;42.666;23.366;2024-01-30T02:52:00;8.20;;;5.60;;
40204;SDS011;26963;42.666;23.366;2024-01-30T02:54:26;7.53;;;5.47;;
40204;SDS011;26963;42.666;23.366;2024-01-30T02:56:52;7.80;;;5.63;;
40204;SDS011;26963;42.666;23.366;2024-01-30T02:59:17;8.57;;;5.80;;
40204;SDS011;26963;42.666;23.366;2024-01-30T03:01:43;7.17;;;5.10;;
40204;SDS011;26963;42.666;23.366;2024-01-30T03:04:10;8.40;;;5.20;;
40204;SDS011;26963;42.666;23.366;2024-01-30T03:06:36;8.20;;;5.60;;
40204;SDS011;26963;42.666;23.366;2024-01-30T03:09:02;7.83;;;5.43;;
40204;SDS011;26963;42.666;23.366;2024-01-30T03:11:28;7.70;;;5.40;;
40204;SDS011;26963;42.666;23.366;2024-01-30T03:13:53;7.47;;;5.33;;
40204;SDS011;26963;42.666;23.366;2024-01-30T03:16:19;7.63;;;5.13;;
40204;SDS011;26963;42.666;23.366;2024-01-30T03:18:44;8.30;;;5.00;;
40204;SDS011;26963;42.666;23.366;2024-01-30T03:21:10;6.50;;;4.50;;
40204;SDS011;26963;42.666;23.366;2024-01-30T03:23:35;6.70;;;4.83;;
40204;SDS011;26963;42.666;23.366;2024-01-30T03:26:01;6.63;;;4.77;;
40204;SDS011;26963;42.666;23.366;2024-01-30T03:28:29;7.73;;;4.70;;
40204;SDS011;26963;42.666;23.366;2024-01-30T03:30:54;7.27;;;4.67;;
40204;SDS011;26963;42.666;23.366;2024-01-30T03:33:20;6.40;;;4.30;;
40204;SDS011;26963;42.666;23.366;2024-01-30T03:35:45;6.93;;;4.50;;
40204;SDS011;26963;42.666;23.366;2024-01-30T03:38:11;7.43;;;4.63;;
40204;SDS011;26963;42.666;23.366;2024-01-30T03:40:36;6.90;;;4.73;;
40204;SDS011;26963;42.666;23.366;2024-01-30T03:43:02;6.60;;;4.50;;
40204;SDS011;26963;42.666;23.366;2024-01-30T03:45:28;6.43;;;4.33;;
40204;SDS011;26963;42.666;23.366;2024-01-30T03:47:53;9.27;;;5.00;;
40204;SDS011;26963;42.666;23.366;2024-01-30T03:50:19;7.60;;;4.83;;
40204;SDS011;26963;42.666;23.366;2024-01-30T03:52:45;7.20;;;4.53;;
40204;SDS011;26963;42.666;23.366;2024-01-30T03:55:10;7.20;;;4.30;;
40204;SDS011;26963;42.666;23.366;2024-01-30T03:57:36;7.27;;;4.77;;
40204;SDS011;26963;42.666;23.366;2024-01-30T04:00:01;6.97;;;4.87;;
40204;SDS011;26963;42.666;23.366;2024-01-30T04:02:30;7.80;;;5.10;;
40204;SDS011;26963;42.666;23.366;2024-01-30T04:04:55;9.33;;;5.27;;
40204;SDS011;26963;42.666;23.366;2024-01-30T04:07:21;11.47;;;6.97;;
40204;SDS011;26963;42.666;23.366;2024-01-30T04:09:47;10.50;;;6.77;;
40204;SDS011;26963;42.666;23.366;2024-01-30T04:12:12;12.33;;;8.70;;
40204;SDS011;26963;42.666;23.366;2024-01-30T04:14:38;13.27;;;8.63;;
40204;SDS011;26963;42.666;23.366;2024-01-30T04:17:04;13.60;;;9.10;;
40204;SDS011;26963;42.666;23.366;2024-01-30T04:19:30;15.57;;;9.77;;
40204;SDS011;26963;42.666;23.366;2024-01-30T04:21:55;10.17;;;6.40;;
40204;SDS011;26963;42.666;23.366;2024-01-30T04:24:21;15.97;;;8.57;;
40204;SDS011;26963;42.666;23.366;2024-01-30T04:26:46;10.47;;;8.13;;
40204;SDS011;26963;42.666;23.366;2024-01-30T04:29:12;10.83;;;8.10;;
40204;SDS011;26963;42.666;23.366;2024-01-30T04:31:38;13.00;;;7.90;;
40204;SDS011;26963;42.666;23.366;2024-01-30T04:34:03;10.77;;;7.23;;
40204;SDS011;26963;42.666;23.366;2024-01-30T04:36:29;14.63;;;7.43;;
40204;SDS011;26963;42.666;23.366;2024-01-30T04:38:54;10.70;;;6.40;;
40204;SDS011;26963;42.666;23.366;2024-01-30T04:41:20;12.63;;;7.73;;
40204;SDS011;26963;42.666;23.366;2024-01-30T04:43:45;11.40;;;7.00;;
40204;SDS011;26963;42.666;23.366;2024-01-30T04:46:11;13.67;;;7.50;;
40204;SDS011;26963;42.666;23.366;2024-01-30T04:48:37;7.03;;;4.90;;
40204;SDS011;26963;42.666;23.366;2024-01-30T04:51:02;7.60;;;4.80;;
40204;SDS011;26963;42.666;23.366;2024-01-30T04:53:29;10.97;;;6.00;;
40204;SDS011;26963;42.666;23.366;2024-01-30T04:55:56;8.00;;;5.40;;
40204;SDS011;26963;42.666;23.366;2024-01-30T04:58:22;7.83;;;4.90;;
40204;SDS011;26963;42.666;23.366;2024-01-30T05:00:47;11.87;;;5.40;;
40204;SDS011;26963;42.666;23.366;2024-01-30T05:03:16;8.63;;;5.80;;
40204;SDS011;26963;42.666;23.366;2024-01-30T05:05:43;12.90;;;7.57;;
40204;SDS011;26963;42.666;23.366;2024-01-30T05:08:08;12.50;;;6.13;;
40204;SDS011;26963;42.666;23.366;2024-01-30T05:10:34;8.63;;;5.77;;
40204;SDS011;26963;42.666;23.366;2024-01-30T05:12:59;10.70;;;5.50;;
40204;SDS011;26963;42.666;23.366;2024-01-30T05:15:25;10.37;;;6.50;;
40204;SDS011;26963;42.666;23.366;2024-01-30T05:17:51;11.63;;;6.27;;
40204;SDS011;26963;42.666;23.366;2024-01-30T05:20:16;15.90;;;9.20;;
40204;SDS011;26963;42.666;23.366;2024-01-30T05:22:42;9.97;;;5.60;;
40204;SDS011;26963;42.666;23.366;2024-01-30T05:25:10;9.63;;;6.33;;
40204;SDS011;26963;42.666;23.366;2024-01-30T05:27:37;10.97;;;6.30;;
40204;SDS011;26963;42.666;23.366;2024-01-30T05:30:03;9.57;;;5.70;;
40204;SDS011;26963;42.666;23.366;2024-01-30T05:32:31;11.57;;;7.13;;
40204;SDS011;26963;42.666;23.366;2024-01-30T05:34:57;14.13;;;6.83;;
40204;SDS011;26963;42.666;23.366;2024-01-30T05:37:22;15.73;;;9.20;;
40204;SDS011;26963;42.666;23.366;2024-01-30T05:39:48;12.90;;;7.67;;
40204;SDS011;26963;42.666;23.366;2024-01-30T05:42:14;14.10;;;9.53;;
40204;SDS011;26963;42.666;23.366;2024-01-30T05:44:40;12.97;;;8.17;;
40204;SDS011;26963;42.666;23.366;2024-01-30T05:47:06;9.27;;;5.97;;
40204;SDS011;26963;42.666;23.366;2024-01-30T05:49:31;12.23;;;7.83;;
40204;SDS011;26963;42.666;23.366;2024-01-30T05:51:57;12.47;;;8.80;;
40204;SDS011;26963;42.666;23.366;2024-01-30T05:54:23;15.77;;;7.80;;
40204;SDS011;26963;42.666;23.366;2024-01-30T05:56:48;8.80;;;6.07;;
40204;SDS011;26963;42.666;23.366;2024-01-30T05:59:14;10.53;;;5.50;;
40204;SDS011;26963;42.666;23.366;2024-01-30T06:01:48;8.33;;;5.10;;
40204;SDS011;26963;42.666;23.366;2024-01-30T06:04:14;8.70;;;5.57;;
40204;SDS011;26963;42.666;23.366;2024-01-30T06:06:40;11.87;;;7.00;;
40204;SDS011;26963;42.666;23.366;2024-01-30T06:09:06;9.03;;;6.10;;
40204;SDS011;26963;42.666;23.366;2024-01-30T06:11:34;11.77;;;7.13;;
40204;SDS011;26963;42.666;23.366;2024-01-30T06:14:00;11.73;;;7.20;;
40204;SDS011;26963;42.666;23.366;2024-01-30T06:16:25;10.30;;;7.30;;
40204;SDS011;26963;42.666;23.366;2024-01-30T06:18:54;14.97;;;6.40;;
40204;SDS011;26963;42.666;23.366;2024-01-30T06:21:21;16.57;;;6.37;;
40204;SDS011;26963;42.666;23.366;2024-01-30T06:23:46;9.57;;;5.70;;
40204;SDS011;26963;42.666;23.366;2024-01-30T06:26:12;14.40;;;7.57;;
40204;SDS011;26963;42.666;23.366;2024-01-30T06:28:38;12.97;;;7.20;;
40204;SDS011;26963;42.666;23.366;2024-01-30T06:31:03;15.83;;;6.80;;
40204;SDS011;26963;42.666;23.366;2024-01-30T06:33:29;9.90;;;6.53;;
40204;SDS011;26963;42.666;23.366;2024-01-30T06:35:55;18.37;;;6.83;;
40204;SDS011;26963;42.666;23.366;2024-01-30T06:38:20;12.60;;;7.00;;
40204;SDS011;26963;42.666;23.366;2024-01-30T06:40:46;11.20;;;7.57;;
40204;SDS011;26963;42.666;23.366;2024-01-30T06:43:11;17.67;;;9.07;;
40204;SDS011;26963;42.666;23.366;2024-01-30T06:45:37;16.13;;;9.97;;
40204;SDS011;26963;42.666;23.366;2024-01-30T06:48:03;13.23;;;9.37;;
40204;SDS011;26963;42.666;23.366;2024-01-30T06:50:29;15.30;;;9.33;;
40204;SDS011;26963;42.666;23.366;2024-01-30T06:52:54;13.60;;;8.23;;
40204;SDS011;26963;42.666;23.366;2024-01-30T06:55:20;15.80;;;9.37;;
40204;SDS011;26963;42.666;23.366;2024-01-30T06:57:45;15.37;;;8.97;;
40204;SDS011;26963;42.666;23.366;2024-01-30T07:00:11;10.00;;;7.30;;
40204;SDS011;26963;42.666;23.366;2024-01-30T07:02:37;12.80;;;8.38;;
40204;SDS011;26963;42.666;23.366;2024-01-30T07:05:03;12.32;;;8.85;;
40204;SDS011;26963;42.666;23.366;2024-01-30T07:07:28;23.63;;;15.32;;
40204;SDS011;26963;42.666;23.366;2024-01-30T07:09:54;17.73;;;13.35;;
40204;SDS011;26963;42.666;23.366;2024-01-30T07:12:23;12.15;;;7.72;;
40204;SDS011;26963;42.666;23.366;2024-01-30T07:14:50;11.38;;;7.15;;
40204;SDS011;26963;42.666;23.366;2024-01-30T07:17:16;6.57;;;4.47;;
40204;SDS011;26963;42.666;23.366;2024-01-30T07:19:42;7.25;;;4.30;;
40204;SDS011;26963;42.666;23.366;2024-01-30T07:22:08;12.38;;;4.75;;
40204;SDS011;26963;42.666;23.366;2024-01-30T07:24:33;9.27;;;5.00;;
40204;SDS011;26963;42.666;23.366;2024-01-30T07:26:59;6.22;;;4.03;;
40204;SDS011;26963;42.666;23.366;2024-01-30T07:29:25;4.90;;;3.30;;
40204;SDS011;26963;42.666;23.366;2024-01-30T07:31:51;7.28;;;4.00;;
40204;SDS011;26963;42.666;23.366;2024-01-30T07:34:16;6.18;;;3.38;;
40204;SDS011;26963;42.666;23.366;2024-01-30T07:36:42;7.25;;;3.83;;
40204;SDS011;26963;42.666;23.366;2024-01-30T07:39:08;5.15;;;3.55;;
40204;SDS011;26963;42.666;23.366;2024-01-30T07:41:35;4.40;;;3.05;;
40204;SDS011;26963;42.666;23.366;2024-01-30T07:44:00;5.47;;;3.20;;
40204;SDS011;26963;42.666;23.366;2024-01-30T07:46:26;4.38;;;2.45;;
40204;SDS011;26963;42.666;23.366;2024-01-30T07:48:51;4.47;;;2.78;;
40204;SDS011;26963;42.666;23.366;2024-01-30T07:51:17;5.18;;;2.95;;
40204;SDS011;26963;42.666;23.366;2024-01-30T07:53:43;3.83;;;2.40;;
40204;SDS011;26963;42.666;23.366;2024-01-30T07:56:10;4.90;;;3.13;;
40204;SDS011;26963;42.666;23.366;2024-01-30T07:58:35;7.13;;;3.13;;
40204;SDS011;26963;42.666;23.366;2024-01-30T08:01:02;4.25;;;3.35;;
40204;SDS011;26963;42.666;23.366;2024-01-30T08:03:28;4.35;;;2.97;;
40204;SDS011;26963;42.666;23.366;2024-01-30T08:05:53;5.75;;;3.40;;
40204;SDS011;26963;42.666;23.366;2024-01-30T08:08:19;5.25;;;3.15;;
40204;SDS011;26963;42.666;23.366;2024-01-30T08:10:45;4.93;;;3.17;;
40204;SDS011;26963;42.666;23.366;2024-01-30T08:13:10;4.82;;;3.03;;
40204;SDS011;26963;42.666;23.366;2024-01-30T08:15:36;4.38;;;2.85;;
40204;SDS011;26963;42.666;23.366;2024-01-30T08:18:01;4.88;;;2.95;;
40204;SDS011;26963;42.666;23.366;2024-01-30T08:20:27;5.28;;;3.40;;
40204;SDS011;26963;42.666;23.366;2024-01-30T08:22:53;4.95;;;3.20;;
40204;SDS011;26963;42.666;23.366;2024-01-30T08:25:18;5.78;;;3.40;;
40204;SDS011;26963;42.666;23.366;2024-01-30T08:27:44;5.90;;;3.85;;
40204;SDS011;26963;42.666;23.366;2024-01-30T08:30:10;6.35;;;3.90;;
40204;SDS011;26963;42.666;23.366;2024-01-30T08:32:36;6.03;;;3.22;;
40204;SDS011;26963;42.666;23.366;2024-01-30T08:35:01;6.15;;;3.53;;
40204;SDS011;26963;42.666;23.366;2024-01-30T08:37:30;6.72;;;4.00;;
40204;SDS011;26963;42.666;23.366;2024-01-30T08:39:56;6.20;;;3.50;;
40204;SDS011;26963;42.666;23.366;2024-01-30T08:42:22;6.50;;;4.22;;
40204;SDS011;26963;42.666;23.366;2024-01-30T08:44:50;8.77;;;4.43;;
40204;SDS011;26963;42.666;23.366;2024-01-30T08:47:18;6.10;;;4.30;;
40204;SDS011;26963;42.666;23.366;2024-01-30T08:49:44;6.85;;;4.53;;
40204;SDS011;26963;42.666;23.366;2024-01-30T08:52:10;7.60;;;4.50;;
40204;SDS011;26963;42.666;23.366;2024-01-30T08:54:36;9.75;;;4.95;;
40204;SDS011;26963;42.666;23.366;2024-01-30T08:57:01;7.78;;;4.43;;
40204;SDS011;26963;42.666;23.366;2024-01-30T08:59:27;7.88;;;5.00;;
40204;SDS011;26963;42.666;23.366;2024-01-30T09:01:53;10.75;;;5.88;;
40204;SDS011;26963;42.666;23.366;2024-01-30T09:04:23;7.78;;;5.03;;
40204;SDS011;26963;42.666;23.366;2024-01-30T09:06:49;9.63;;;6.35;;
40204;SDS011;26963;42.666;23.366;2024-01-30T09:09:14;8.45;;;4.82;;
40204;SDS011;26963;42.666;23.366;2024-01-30T09:11:40;10.10;;;5.10;;
40204;SDS011;26963;42.666;23.366;2024-01-30T09:14:06;9.30;;;4.75;;
40204;SDS011;26963;42.666;23.366;2024-01-30T09:16:31;9.23;;;5.43;;
40204;SDS011;26963;42.666;23.366;2024-01-30T09:18:57;7.97;;;4.68;;
40204;SDS011;26963;42.666;23.366;2024-01-30T09:21:23;6.35;;;4.63;;
40204;SDS011;26963;42.666;23.366;2024-01-30T09:23:49;9.38;;;6.38;;
40204;SDS011;26963;42.666;23.366;2024-01-30T09:26:14;16.05;;;10.02;;
40204;SDS011;26963;42.666;23.366;2024-01-30T09:28:40;10.32;;;6.75;;
40204;SDS011;26963;42.666;23.366;2024-01-30T09:31:10;6.78;;;4.90;;
40204;SDS011;26963;42.666;23.366;2024-01-30T09:33:37;6.03;;;4.18;;
40204;SDS011;26963;42.666;23.366;2024-01-30T09:36:04;9.15;;;4.88;;
40204;SDS011;26963;42.666;23.366;2024-01-30T09:38:30;7.43;;;4.63;;
40204;SDS011;26963;42.666;23.366;2024-01-30T09:40:56;8.48;;;4.63;;
40204;SDS011;26963;42.666;23.366;2024-01-30T09:43:28;7.20;;;4.63;;
40204;SDS011;26963;42.666;23.366;2024-01-30T09:45:58;12.77;;;6.40;;
40204;SDS011;26963;42.666;23.366;2024-01-30T09:48:27;8.70;;;6.47;;
40204;SDS011;26963;42.666;23.366;2024-01-30T09:50:54;7.15;;;4.47;;
40204;SDS011;26963;42.666;23.366;2024-01-30T09:53:19;8.13;;;4.65;;
40204;SDS011;26963;42.666;23.366;2024-01-30T09:55:46;6.63;;;4.15;;
40204;SDS011;26963;42.666;23.366;2024-01-30T09:58:13;5.60;;;3.83;;
40204;SDS011;26963;42.666;23.366;2024-01-30T10:00:38;7.10;;;4.25;;
40204;SDS011;26963;42.666;23.366;2024-01-30T10:03:04;8.38;;;5.10;;
40204;SDS011;26963;42.666;23.366;2024-01-30T10:05:30;8.75;;;4.50;;
40204;SDS011;26963;42.666;23.366;2024-01-30T10:07:59;5.72;;;3.72;;
40204;SDS011;26963;42.666;23.366;2024-01-30T10:10:24;7.53;;;3.88;;
40204;SDS011;26963;42.666;23.366;2024-01-30T10:12:51;5.97;;;3.55;;
40204;SDS011;26963;42.666;23.366;2024-01-30T10:15:17;6.68;;;4.40;;
40204;SDS011;26963;42.666;23.366;2024-01-30T10:17:47;7.45;;;4.28;;
40204;SDS011;26963;42.666;23.366;2024-01-30T10:20:12;6.00;;;3.70;;
40204;SDS011;26963;42.666;23.366;2024-01-30T10:22:39;6.07;;;3.80;;
40204;SDS011;26963;42.666;23.366;2024-01-30T10:25:07;5.65;;;3.35;;
40204;SDS011;26963;42.666;23.366;2024-01-30T10:27:34;7.93;;;3.28;;
40204;SDS011;26963;42.666;23.366;2024-01-30T10:30:00;6.18;;;3.50;;
40204;SDS011;26963;42.666;23.366;2024-01-30T10:32:26;7.15;;;3.60;;
40204;SDS011;26963;42.666;23.366;2024-01-30T10:34:52;7.00;;;4.13;;
40204;SDS011;26963;42.666;23.366;2024-01-30T10:37:18;8.18;;;4.60;;
40204;SDS011;26963;42.666;23.366;2024-01-30T10:39:46;8.02;;;4.00;;
40204;SDS011;26963;42.666;23.366;2024-01-30T10:42:20;10.30;;;3.95;;
40204;SDS011;26963;42.666;23.366;2024-01-30T10:45:02;8.13;;;4.28;;
40204;SDS011;26963;42.666;23.366;2024-01-30T10:47:34;7.45;;;3.97;;
40204;SDS011;26963;42.666;23.366;2024-01-30T10:50:03;6.43;;;3.63;;
40204;SDS011;26963;42.666;23.366;2024-01-30T10:52:29;6.57;;;4.30;;
40204;SDS011;26963;42.666;23.366;2024-01-30T10:54:57;7.63;;;3.72;;
40204;SDS011;26963;42.666;23.366;2024-01-30T10:57:23;6.65;;;3.70;;
40204;SDS011;26963;42.666;23.366;2024-01-30T10:59:55;6.47;;;3.78;;
40204;SDS011;26963;42.666;23.366;2024-01-30T11:02:23;9.43;;;6.40;;
40204;SDS011;26963;42.666;23.366;2024-01-30T11:04:50;7.68;;;5.07;;
40204;SDS011;26963;42.666;23.366;2024-01-30T11:07:24;9.45;;;6.00;;
40204;SDS011;26963;42.666;23.366;2024-01-30T11:10:02;5.55;;;3.25;;
40204;SDS011;26963;42.666;23.366;2024-01-30T11:12:29;8.65;;;5.30;;
40204;SDS011;26963;42.666;23.366;2024-01-30T11:17:39;6.32;;;4.13;;
40204;SDS011;26963;42.666;23.366;2024-01-30T11:20:09;8.13;;;3.50;;
40204;SDS011;26963;42.666;23.366;2024-01-30T11:22:35;6.82;;;3.20;;
40204;SDS011;26963;42.666;23.366;2024-01-30T11:25:01;4.68;;;2.97;;
40204;SDS011;26963;42.666;23.366;2024-01-30T11:27:28;10.73;;;4.25;;
40204;SDS011;26963;42.666;23.366;2024-01-30T11:30:05;7.13;;;3.72;;
40204;SDS011;26963;42.666;23.366;2024-01-30T11:32:33;4.93;;;3.00;;
40204;SDS011;26963;42.666;23.366;2024-01-30T11:34:58;4.90;;;3.10;;
40204;SDS011;26963;42.666;23.366;2024-01-30T11:37:24;5.53;;;3.20;;
40204;SDS011;26963;42.666;23.366;2024-01-30T11:39:53;6.38;;;3.28;;
40204;SDS011;26963;42.666;23.366;2024-01-30T11:42:19;7.38;;;3.85;;
40204;SDS011;26963;42.666;23.366;2024-01-30T11:44:48;4.47;;;3.13;;
40204;SDS011;26963;42.666;23.366;2024-01-30T11:47:14;4.60;;;2.97;;
40204;SDS011;26963;42.666;23.366;2024-01-30T11:49:41;4.63;;;3.08;;
40204;SDS011;26963;42.666;23.366;2024-01-30T11:52:06;4.63;;;3.03;;
40204;SDS011;26963;42.666;23.366;2024-01-30T11:54:32;3.78;;;2.65;;
40204;SDS011;26963;42.666;23.366;2024-01-30T11:56:58;5.45;;;3.22;;
40204;SDS011;26963;42.666;23.366;2024-01-30T11:59:25;6.50;;;3.30;;
40204;SDS011;26963;42.666;23.366;2024-01-30T12:01:51;5.88;;;3.15;;
40204;SDS011;26963;42.666;23.366;2024-01-30T12:04:17;6.15;;;3.63;;
40204;SDS011;26963;42.666;23.366;2024-01-30T12:06:43;5.97;;;3.85;;
40204;SDS011;26963;42.666;23.366;2024-01-30T12:09:09;6.95;;;4.00;;
40204;SDS011;26963;42.666;23.366;2024-01-30T12:11:46;5.88;;;3.72;;
40204;SDS011;26963;42.666;23.366;2024-01-30T12:14:13;5.70;;;3.20;;
40204;SDS011;26963;42.666;23.366;2024-01-30T12:16:40;5.88;;;3.28;;
40204;SDS011;26963;42.666;23.366;2024-01-30T12:19:06;5.57;;;3.25;;
40204;SDS011;26963;42.666;23.366;2024-01-30T12:21:33;6.72;;;4.38;;
40204;SDS011;26963;42.666;23.366;2024-01-30T12:24:00;8.43;;;3.42;;
40204;SDS011;26963;42.666;23.366;2024-01-30T12:26:26;9.55;;;6.15;;
40204;SDS011;26963;42.666;23.366;2024-01-30T12:28:55;6.07;;;3.45;;
40204;SDS011;26963;42.666;23.366;2024-01-30T12:31:26;5.15;;;3.53;;
40204;SDS011;26963;42.666;23.366;2024-01-30T12:33:53;8.20;;;4.20;;
40204;SDS011;26963;42.666;23.366;2024-01-30T12:36:18;4.82;;;3.40;;
40204;SDS011;26963;42.666;23.366;2024-01-30T12:38:44;6.70;;;3.70;;
40204;SDS011;26963;42.666;23.366;2024-01-30T12:41:10;7.35;;;4.25;;
40204;SDS011;26963;42.666;23.366;2024-01-30T12:43:36;8.00;;;3.92;;
40204;SDS011;26963;42.666;23.366;2024-01-30T12:46:02;6.07;;;3.95;;
40204;SDS011;26963;42.666;23.366;2024-01-30T12:48:28;7.05;;;4.82;;
40204;SDS011;26963;42.666;23.366;2024-01-30T12:50:55;9.30;;;6.07;;
40204;SDS011;26963;42.666;23.366;2024-01-30T12:53:21;6.13;;;4.18;;
40204;SDS011;26963;42.666;23.366;2024-01-30T12:55:47;6.00;;;4.25;;
40204;SDS011;26963;42.666;23.366;2024-01-30T12:58:14;6.30;;;4.22;;
40204;SDS011;26963;42.666;23.366;2024-01-30T13:00:40;8.40;;;3.67;;
40204;SDS011;26963;42.666;23.366;2024-01-30T13:03:08;7.50;;;4.40;;
40204;SDS011;26963;42.666;23.366;2024-01-30T13:05:33;5.70;;;3.90;;
40204;SDS011;26963;42.666;23.366;2024-01-30T13:07:59;14.65;;;4.35;;
40204;SDS011;26963;42.666;23.366;2024-01-30T13:10:24;6.45;;;4.32;;
40204;SDS011;26963;42.666;23.366;2024-01-30T13:12:50;8.80;;;5.10;;
40204;SDS011;26963;42.666;23.366;2024-01-30T13:15:16;8.77;;;3.90;;
40204;SDS011;26963;42.666;23.366;2024-01-30T13:17:42;6.10;;;3.92;;
40204;SDS011;26963;42.666;23.366;2024-01-30T13:20:09;6.68;;;3.80;;
40204;SDS011;26963;42.666;23.366;2024-01-30T13:22:35;6.18;;;4.10;;
40204;SDS011;26963;42.666;23.366;2024-01-30T13:25:00;7.50;;;4.95;;
40204;SDS011;26963;42.666;23.366;2024-01-30T13:27:26;8.07;;;4.70;;
40204;SDS011;26963;42.666;23.366;2024-01-30T13:29:52;8.00;;;4.53;;
40204;SDS011;26963;42.666;23.366;2024-01-30T13:32:18;7.80;;;4.47;;
40204;SDS011;26963;42.666;23.366;2024-01-30T13:34:43;8.35;;;5.13;;
40204;SDS011;26963;42.666;23.366;2024-01-30T13:37:09;8.32;;;4.65;;
40204;SDS011;26963;42.666;23.366;2024-01-30T13:39:34;11.80;;;5.30;;
40204;SDS011;26963;42.666;23.366;2024-01-30T13:42:00;8.00;;;5.00;;
40204;SDS011;26963;42.666;23.366;2024-01-30T13:44:26;6.27;;;4.13;;
40204;SDS011;26963;42.666;23.366;2024-01-30T13:46:51;7.17;;;4.33;;
40204;SDS011;26963;42.666;23.366;2024-01-30T13:49:17;7.17;;;4.00;;
40204;SDS011;26963;42.666;23.366;2024-01-30T13:51:42;9.13;;;4.70;;
40204;SDS011;26963;42.666;23.366;2024-01-30T13:54:08;7.23;;;4.40;;
40204;SDS011;26963;42.666;23.366;2024-01-30T13:56:34;6.67;;;4.47;;
40204;SDS011;26963;42.666;23.366;2024-01-30T13:59:01;7.90;;;4.70;;
40204;SDS011;26963;42.666;23.366;2024-01-30T14:01:30;10.43;;;5.73;;
40204;SDS011;26963;42.666;23.366;2024-01-30T14:03:56;9.70;;;6.30;;
40204;SDS011;26963;42.666;23.366;2024-01-30T14:06:21;11.53;;;7.07;;
40204;SDS011;26963;42.666;23.366;2024-01-30T14:08:47;11.93;;;5.90;;
40204;SDS011;26963;42.666;23.366;2024-01-30T14:11:13;12.70;;;7.50;;
40204;SDS011;26963;42.666;23.366;2024-01-30T14:13:38;17.07;;;9.63;;
40204;SDS011;26963;42.666;23.366;2024-01-30T14:16:04;11.13;;;7.63;;
40204;SDS011;26963;42.666;23.366;2024-01-30T14:18:30;9.03;;;5.53;;
40204;SDS011;26963;42.666;23.366;2024-01-30T14:20:56;10.43;;;6.13;;
40204;SDS011;26963;42.666;23.366;2024-01-30T14:23:21;17.83;;;7.20;;
40204;SDS011;26963;42.666;23.366;2024-01-30T14:25:47;10.30;;;6.97;;
40204;SDS011;26963;42.666;23.366;2024-01-30T14:28:12;11.40;;;5.97;;